createdAt,value
2023-02-20T00:00:39.582Z,2.28
2023-02-20T00:02:03.264Z,2.33
2023-02-20T00:03:27.439Z,2.28
2023-02-20T00:04:50.822Z,2.00
2023-02-20T00:06:13.559Z,2.03
2023-02-20T00:07:39.622Z,1.95
2023-02-20T00:09:02.976Z,2.40
2023-02-20T00:10:26.725Z,2.33
2023-02-20T00:11:50.472Z,2.55
2023-02-20T00:13:13.874Z,2.10
2023-02-20T00:14:36.302Z,2.08
2023-02-20T00:15:59.794Z,2.33
2023-02-20T00:17:22.232Z,2.03
2023-02-20T00:18:46.699Z,2.05
2023-02-20T00:20:09.922Z,2.60
2023-02-20T00:21:33.422Z,2.05
2023-02-20T00:22:56.034Z,2.20
2023-02-20T00:24:19.650Z,1.85
2023-02-20T00:25:43.010Z,2.40
2023-02-20T00:27:07.724Z,2.10
2023-02-20T00:28:31.060Z,2.00
2023-02-20T00:29:54.564Z,2.75
2023-02-20T00:31:19.690Z,2.78
2023-02-20T00:32:43.088Z,2.53
2023-02-20T00:34:05.482Z,2.20
2023-02-20T00:35:28.993Z,2.30
2023-02-20T00:36:52.379Z,1.85
2023-02-20T00:38:14.779Z,2.45
2023-02-20T00:39:38.485Z,2.35
2023-02-20T00:41:00.977Z,2.92
2023-02-20T00:42:25.710Z,2.80
2023-02-20T00:43:49.691Z,2.67
2023-02-20T00:45:13.573Z,2.90
2023-02-20T00:46:37.081Z,2.75
2023-02-20T00:47:59.571Z,2.42
2023-02-20T00:49:22.969Z,2.20
2023-02-20T00:50:45.346Z,2.67
2023-02-20T00:52:08.749Z,2.22
2023-02-20T00:53:32.113Z,2.83
2023-02-20T00:54:54.646Z,2.85
2023-02-20T00:56:18.040Z,2.42
2023-02-20T00:57:42.020Z,2.60
2023-02-20T00:59:05.590Z,2.55
2023-02-20T01:00:30.777Z,2.55
2023-02-20T01:01:53.265Z,2.55
2023-02-20T01:03:16.907Z,2.78
2023-02-20T01:04:40.392Z,2.30
2023-02-20T01:06:02.795Z,2.65
2023-02-20T01:07:26.181Z,2.55
2023-02-20T01:08:51.559Z,2.78
2023-02-20T01:10:15.266Z,2.28
2023-02-20T01:11:37.823Z,2.83
2023-02-20T01:13:02.573Z,3.13
2023-02-20T01:14:28.642Z,2.78
2023-02-20T01:15:52.149Z,2.65
2023-02-20T01:17:14.574Z,2.47
2023-02-20T01:18:37.935Z,2.88
2023-02-20T01:20:01.244Z,2.17
2023-02-20T01:21:24.637Z,2.80
2023-02-20T01:22:47.019Z,2.25
2023-02-20T01:24:10.573Z,2.42
2023-02-20T01:25:33.222Z,2.58
2023-02-20T01:26:56.561Z,3.03
2023-02-20T01:28:20.503Z,2.80
2023-02-20T01:29:43.889Z,2.53
2023-02-20T01:31:08.966Z,2.40
2023-02-20T01:32:31.416Z,2.78
2023-02-20T01:33:55.128Z,2.55
2023-02-20T01:35:17.949Z,2.55
2023-02-20T01:36:46.033Z,2.22
2023-02-20T01:38:09.413Z,2.42
2023-02-20T01:39:31.901Z,2.55
2023-02-20T01:40:55.499Z,3.10
2023-02-20T01:42:20.856Z,2.83
2023-02-20T01:43:45.547Z,2.70
2023-02-20T01:45:20.604Z,2.35
2023-02-20T01:46:52.119Z,2.63
2023-02-20T01:48:23.675Z,2.55
2023-02-20T01:49:50.711Z,2.72
2023-02-20T01:51:14.094Z,2.55
2023-02-20T01:52:38.965Z,2.35
2023-02-20T01:54:01.453Z,2.83
2023-02-20T01:55:27.206Z,2.50
2023-02-20T01:56:49.978Z,3.20
2023-02-20T01:58:17.485Z,2.33
2023-02-20T01:59:42.282Z,2.50
2023-02-20T02:01:06.737Z,2.55
2023-02-20T02:02:31.237Z,2.38
2023-02-20T02:03:58.725Z,2.60
2023-02-20T02:05:22.851Z,2.67
2023-02-20T02:06:49.436Z,2.28
2023-02-20T02:08:13.130Z,2.45
2023-02-20T02:09:41.136Z,2.60
2023-02-20T02:11:06.396Z,2.40
2023-02-20T02:12:29.024Z,2.33
2023-02-20T02:13:52.373Z,2.70
2023-02-20T02:15:19.092Z,2.50
2023-02-20T02:16:47.494Z,2.42
2023-02-20T02:18:35.403Z,2.80
2023-02-20T02:20:21.240Z,3.03
2023-02-20T02:22:11.695Z,2.58
2023-02-20T02:23:51.728Z,2.65
2023-02-20T02:25:32.738Z,2.67
2023-02-20T02:27:42.004Z,2.45
2023-02-20T02:29:59.113Z,2.15
2023-02-20T02:31:47.664Z,3.05
2023-02-20T02:33:36.666Z,2.35
2023-02-20T02:35:19.473Z,2.90
2023-02-20T02:36:56.031Z,2.55
2023-02-20T02:38:22.914Z,2.25
2023-02-20T02:39:49.416Z,3.15
2023-02-20T02:41:17.850Z,2.78
2023-02-20T02:42:47.044Z,2.90
2023-02-20T02:44:15.066Z,2.80
2023-02-20T02:45:42.350Z,2.72
2023-02-20T02:47:09.002Z,2.95
2023-02-20T02:48:36.189Z,2.88
2023-02-20T02:50:01.432Z,3.65
2023-02-20T02:51:29.094Z,3.25
2023-02-20T02:52:54.769Z,2.72
2023-02-20T02:54:20.812Z,3.05
2023-02-20T02:55:44.166Z,2.60
2023-02-20T02:57:24.613Z,3.10
2023-02-20T02:58:48.167Z,2.90
2023-02-20T03:00:12.757Z,2.53
2023-02-20T03:01:39.888Z,2.97
2023-02-20T03:03:07.875Z,2.70
2023-02-20T03:04:33.445Z,2.78
2023-02-20T03:06:00.744Z,3.65
2023-02-20T03:07:24.808Z,3.55
2023-02-20T03:08:57.547Z,3.25
2023-02-20T03:10:31.406Z,3.28
2023-02-20T03:11:56.175Z,3.03
2023-02-20T03:13:19.897Z,3.47
2023-02-20T03:15:03.562Z,3.45
2023-02-20T03:16:30.775Z,3.22
2023-02-20T03:17:57.848Z,3.08
2023-02-20T03:19:26.155Z,3.45
2023-02-20T03:20:52.427Z,3.58
2023-02-20T03:22:18.613Z,3.35
2023-02-20T03:23:44.005Z,2.92
2023-02-20T03:25:10.595Z,3.15
2023-02-20T03:26:36.709Z,3.38
2023-02-20T03:28:01.790Z,3.50
2023-02-20T03:29:28.836Z,3.83
2023-02-20T03:30:54.267Z,3.38
2023-02-20T03:32:38.058Z,2.85
2023-02-20T03:34:22.466Z,3.55
2023-02-20T03:36:03.601Z,3.30
2023-02-20T03:37:45.896Z,3.30
2023-02-20T03:39:35.510Z,3.28
2023-02-20T03:41:19.329Z,3.17
2023-02-20T03:43:04.050Z,3.40
2023-02-20T03:44:27.561Z,3.50
2023-02-20T03:45:50.899Z,3.50
2023-02-20T03:47:17.093Z,2.90
2023-02-20T03:48:45.558Z,3.47
2023-02-20T03:50:28.245Z,3.53
2023-02-20T03:52:00.661Z,3.40
2023-02-20T03:53:23.552Z,3.47
2023-02-20T03:54:47.334Z,3.38
2023-02-20T03:56:16.130Z,3.17
2023-02-20T03:57:42.129Z,3.83
2023-02-20T03:59:09.128Z,3.03
2023-02-20T04:00:34.350Z,3.50
2023-02-20T04:01:59.787Z,3.40
2023-02-20T04:03:24.540Z,3.20
2023-02-20T04:04:49.411Z,4.20
2023-02-20T04:06:15.105Z,3.53
2023-02-20T04:07:42.856Z,3.30
2023-02-20T04:09:07.614Z,3.65
2023-02-20T04:10:34.703Z,3.30
2023-02-20T04:12:01.492Z,3.55
2023-02-20T04:13:25.753Z,3.70
2023-02-20T04:14:51.004Z,4.05
2023-02-20T04:16:14.422Z,3.45
2023-02-20T04:17:46.135Z,3.97
2023-02-20T04:19:10.518Z,4.20
2023-02-20T04:20:32.979Z,3.63
2023-02-20T04:21:58.075Z,3.72
2023-02-20T04:23:24.613Z,3.88
2023-02-20T04:24:50.808Z,3.70
2023-02-20T04:26:16.587Z,3.35
2023-02-20T04:27:41.616Z,4.63
2023-02-20T04:29:04.297Z,3.88
2023-02-20T04:30:27.786Z,3.53
2023-02-20T04:31:51.319Z,3.80
2023-02-20T04:33:15.640Z,3.40
2023-02-20T04:34:39.162Z,3.38
2023-02-20T04:36:02.216Z,3.83
2023-02-20T04:37:25.654Z,4.28
2023-02-20T04:38:48.091Z,3.67
2023-02-20T04:40:13.744Z,3.75
2023-02-20T04:41:37.217Z,4.03
2023-02-20T04:43:02.028Z,3.72
2023-02-20T04:44:33.923Z,4.50
2023-02-20T04:45:57.496Z,3.90
2023-02-20T04:47:20.051Z,3.55
2023-02-20T04:48:43.630Z,4.05
2023-02-20T04:50:06.423Z,4.07
2023-02-20T04:51:30.045Z,4.15
2023-02-20T04:52:53.705Z,3.45
2023-02-20T04:54:16.424Z,3.10
2023-02-20T04:55:39.939Z,4.10
2023-02-20T04:57:03.347Z,4.07
2023-02-20T04:58:28.109Z,3.90
2023-02-20T04:59:50.593Z,3.83
2023-02-20T05:01:14.295Z,3.78
2023-02-20T05:02:39.512Z,4.40
2023-02-20T05:04:02.905Z,4.05
2023-02-20T05:05:26.782Z,4.15
2023-02-20T05:06:51.774Z,4.13
2023-02-20T05:08:15.204Z,3.90
2023-02-20T05:09:38.566Z,3.75
2023-02-20T05:11:00.963Z,3.75
2023-02-20T05:12:24.340Z,3.90
2023-02-20T05:13:49.922Z,3.50
2023-02-20T05:15:13.410Z,3.65
2023-02-20T05:16:39.003Z,3.60
2023-02-20T05:18:01.450Z,3.63
2023-02-20T05:19:25.055Z,4.13
2023-02-20T05:21:05.882Z,4.57
2023-02-20T05:22:28.333Z,3.78
2023-02-20T05:23:51.729Z,4.10
2023-02-20T05:25:16.599Z,4.10
2023-02-20T05:26:39.195Z,3.80
2023-02-20T05:28:02.681Z,4.47
2023-02-20T05:29:27.476Z,4.35
2023-02-20T05:30:51.657Z,4.40
2023-02-20T05:32:15.435Z,3.72
2023-02-20T05:33:38.870Z,4.28
2023-02-20T05:35:02.235Z,3.67
2023-02-20T05:36:25.672Z,4.57
2023-02-20T05:37:49.054Z,4.18
2023-02-20T05:39:12.474Z,4.05
2023-02-20T05:40:35.133Z,4.45
2023-02-20T05:41:58.608Z,4.20
2023-02-20T05:43:20.997Z,3.45
2023-02-20T05:44:46.232Z,4.00
2023-02-20T05:46:08.727Z,3.88
2023-02-20T05:47:33.832Z,3.78
2023-02-20T05:48:57.271Z,4.53
2023-02-20T05:50:20.672Z,4.15
2023-02-20T05:51:44.122Z,3.95
2023-02-20T05:53:08.220Z,3.83
2023-02-20T05:54:31.681Z,3.92
2023-02-20T05:55:54.171Z,3.08
2023-02-20T05:57:17.809Z,4.07
2023-02-20T05:58:41.918Z,3.47
2023-02-20T06:00:07.819Z,4.00
2023-02-20T06:01:32.387Z,3.85
2023-02-20T06:02:55.842Z,4.07
2023-02-20T06:04:18.507Z,3.80
2023-02-20T06:05:42.041Z,3.83
2023-02-20T06:07:05.501Z,4.00
2023-02-20T06:08:27.911Z,4.57
2023-02-20T06:09:51.330Z,3.97
2023-02-20T06:11:15.378Z,3.95
2023-02-20T06:12:38.812Z,3.90
2023-02-20T06:14:02.635Z,4.53
2023-02-20T06:15:27.460Z,4.43
2023-02-20T06:16:50.931Z,3.70
2023-02-20T06:18:13.358Z,3.92
2023-02-20T06:19:36.806Z,4.10
2023-02-20T06:21:01.149Z,4.30
2023-02-20T06:22:24.558Z,4.60
2023-02-20T06:23:47.090Z,4.15
2023-02-20T06:25:11.535Z,3.75
2023-02-20T06:26:42.894Z,4.50
2023-02-20T06:28:06.473Z,4.57
2023-02-20T06:29:30.223Z,3.90
2023-02-20T06:30:55.017Z,4.65
2023-02-20T06:32:18.955Z,4.10
2023-02-20T06:33:41.355Z,4.43
2023-02-20T06:35:05.049Z,4.15
2023-02-20T06:36:30.998Z,4.90
2023-02-20T06:37:54.461Z,4.72
2023-02-20T06:39:17.867Z,4.90
2023-02-20T06:40:40.340Z,4.97
2023-02-20T06:42:03.996Z,4.38
2023-02-20T06:43:27.529Z,4.80
2023-02-20T06:44:51.374Z,4.38
2023-02-20T06:46:16.288Z,5.00
2023-02-20T06:47:39.953Z,5.07
2023-02-20T06:49:03.569Z,5.07
2023-02-20T06:50:26.919Z,5.05
2023-02-20T06:51:53.430Z,4.63
2023-02-20T06:53:16.907Z,5.30
2023-02-20T06:54:41.976Z,4.88
2023-02-20T06:56:08.426Z,5.22
2023-02-20T06:57:33.970Z,5.10
2023-02-20T06:58:56.602Z,5.60
2023-02-20T07:00:21.902Z,5.70
2023-02-20T07:02:18.086Z,6.00
2023-02-20T07:03:41.561Z,6.32
2023-02-20T07:05:04.425Z,5.70
2023-02-20T07:06:28.082Z,5.97
2023-02-20T07:07:51.478Z,5.97
2023-02-20T07:09:14.989Z,5.63
2023-02-20T07:10:38.395Z,6.43
2023-02-20T07:12:01.973Z,6.38
2023-02-20T07:13:25.409Z,6.47
2023-02-20T07:14:48.797Z,5.45
2023-02-20T07:16:12.750Z,5.93
2023-02-20T07:17:38.132Z,5.47
2023-02-20T07:19:01.502Z,6.03
2023-02-20T07:20:24.925Z,6.45
2023-02-20T07:21:48.829Z,6.53
2023-02-20T07:23:13.677Z,5.97
2023-02-20T07:24:37.073Z,6.13
2023-02-20T07:26:00.545Z,5.95
2023-02-20T07:27:24.232Z,5.90
2023-02-20T07:28:49.287Z,6.53
2023-02-20T07:30:13.818Z,5.85
2023-02-20T07:31:39.050Z,6.05
2023-02-20T07:33:03.044Z,5.35
2023-02-20T07:34:27.318Z,6.18
2023-02-20T07:35:50.787Z,5.57
2023-02-20T07:37:14.419Z,5.45
2023-02-20T07:38:36.827Z,5.82
2023-02-20T07:40:00.287Z,6.47
2023-02-20T07:41:24.046Z,5.03
2023-02-20T07:42:47.453Z,5.50
2023-02-20T07:44:12.910Z,5.22
2023-02-20T07:45:36.370Z,5.63
2023-02-20T07:46:59.845Z,4.43
2023-02-20T07:48:24.761Z,5.00
2023-02-20T07:49:48.192Z,4.88
2023-02-20T07:51:11.653Z,5.70
2023-02-20T07:52:35.033Z,5.68
2023-02-20T07:53:58.493Z,5.50
2023-02-20T07:55:22.110Z,5.35
2023-02-20T07:56:45.603Z,4.80
2023-02-20T07:58:08.022Z,5.30
2023-02-20T07:59:31.403Z,5.28
2023-02-20T08:00:54.810Z,4.75
2023-02-20T08:02:19.823Z,4.40
2023-02-20T08:03:44.680Z,5.03
2023-02-20T08:05:08.411Z,4.70
2023-02-20T08:06:31.847Z,4.10
2023-02-20T08:07:55.938Z,4.70
2023-02-20T08:09:19.363Z,5.13
2023-02-20T08:10:42.726Z,4.68
2023-02-20T08:12:06.400Z,5.00
2023-02-20T08:13:31.175Z,4.55
2023-02-20T08:14:54.688Z,4.57
2023-02-20T08:16:18.789Z,3.97
2023-02-20T08:17:46.944Z,4.45
2023-02-20T08:19:12.264Z,4.28
2023-02-20T08:20:34.730Z,4.07
2023-02-20T08:21:58.572Z,4.65
2023-02-20T08:23:24.498Z,3.55
2023-02-20T08:24:48.061Z,3.95
2023-02-20T08:26:11.846Z,4.22
2023-02-20T08:27:38.186Z,3.85
2023-02-20T08:29:01.630Z,4.05
2023-02-20T08:30:26.800Z,4.65
2023-02-20T08:31:50.345Z,4.25
2023-02-20T08:33:13.870Z,4.68
2023-02-20T08:34:38.719Z,4.63
2023-02-20T08:36:02.509Z,4.20
2023-02-20T08:37:25.940Z,3.95
2023-02-20T08:38:49.373Z,3.75
2023-02-20T08:40:13.326Z,3.42
2023-02-20T08:41:42.299Z,3.72
2023-02-20T08:43:05.750Z,3.80
2023-02-20T08:44:29.165Z,4.28
2023-02-20T08:45:52.800Z,4.03
2023-02-20T08:47:16.228Z,3.72
2023-02-20T08:48:39.662Z,4.60
2023-02-20T08:50:04.926Z,3.67
2023-02-20T08:51:28.336Z,3.50
2023-02-20T08:52:51.879Z,4.63
2023-02-20T08:54:16.260Z,3.63
2023-02-20T08:55:39.663Z,4.18
2023-02-20T08:57:03.054Z,3.42
2023-02-20T08:58:27.329Z,3.58
2023-02-20T08:59:50.721Z,3.70
2023-02-20T09:01:14.243Z,3.90
2023-02-20T09:02:37.640Z,3.80
2023-02-20T09:04:02.201Z,3.63
2023-02-20T09:05:27.104Z,4.53
2023-02-20T09:06:50.485Z,3.28
2023-02-20T09:08:13.954Z,4.03
2023-02-20T09:09:39.923Z,2.88
2023-02-20T09:11:03.468Z,3.38
2023-02-20T09:12:26.956Z,3.67
2023-02-20T09:13:50.809Z,3.17
2023-02-20T09:15:17.912Z,3.50
2023-02-20T09:16:42.256Z,3.33
2023-02-20T09:18:06.508Z,3.63
2023-02-20T09:19:30.279Z,3.47
2023-02-20T09:20:56.062Z,3.47
2023-02-20T09:22:27.781Z,3.47
2023-02-20T09:23:51.196Z,2.65
2023-02-20T09:25:15.573Z,3.30
2023-02-20T09:26:39.098Z,2.70
2023-02-20T09:28:02.512Z,3.38
2023-02-20T09:29:24.946Z,2.80
2023-02-20T09:30:48.384Z,2.70
2023-02-20T09:32:13.226Z,2.70
2023-02-20T09:33:36.696Z,3.33
2023-02-20T09:35:00.085Z,3.05
2023-02-20T09:36:24.863Z,3.05
2023-02-20T09:37:48.350Z,3.13
2023-02-20T09:39:11.761Z,2.70
2023-02-20T09:40:35.238Z,3.15
2023-02-20T09:42:07.567Z,3.08
2023-02-20T09:43:46.323Z,2.88
2023-02-20T09:45:15.399Z,2.97
2023-02-20T09:46:39.215Z,2.80
2023-02-20T09:48:11.359Z,2.97
2023-02-20T09:49:37.436Z,2.75
2023-02-20T09:51:03.517Z,2.75
2023-02-20T09:52:28.812Z,2.67
2023-02-20T09:53:56.270Z,2.67
2023-02-20T09:55:22.617Z,2.97
2023-02-20T09:56:50.699Z,3.85
2023-02-20T09:58:22.703Z,2.58
2023-02-20T09:59:50.396Z,3.20
2023-02-20T10:01:17.014Z,2.97
2023-02-20T10:02:43.023Z,2.90
2023-02-20T10:04:11.503Z,2.78
2023-02-20T10:05:35.442Z,2.50
2023-02-20T10:07:05.876Z,2.85
2023-02-20T10:08:31.051Z,2.70
2023-02-20T10:09:54.952Z,2.95
2023-02-20T10:11:26.164Z,3.47
2023-02-20T10:12:58.257Z,3.03
2023-02-20T10:14:44.217Z,2.60
2023-02-20T10:16:18.488Z,3.50
2023-02-20T10:17:46.548Z,2.63
2023-02-20T10:19:21.284Z,2.80
2023-02-20T10:20:53.317Z,2.75
2023-02-20T10:22:21.336Z,3.13
2023-02-20T10:24:04.631Z,2.90
2023-02-20T10:25:33.191Z,2.58
2023-02-20T10:26:59.183Z,3.80
2023-02-20T10:28:23.572Z,2.55
2023-02-20T10:29:46.630Z,3.00
2023-02-20T10:31:23.255Z,3.63
2023-02-20T10:32:50.145Z,3.10
2023-02-20T10:34:18.072Z,2.80
2023-02-20T10:35:45.448Z,3.15
2023-02-20T10:37:11.949Z,3.58
2023-02-20T10:38:40.043Z,3.17
2023-02-20T10:40:17.905Z,3.95
2023-02-20T10:41:46.167Z,4.70
2023-02-20T10:43:14.664Z,5.00
2023-02-20T10:44:51.642Z,7.28
2023-02-20T10:46:20.497Z,6.40
2023-02-20T10:47:50.431Z,5.22
2023-02-20T10:49:16.825Z,6.38
2023-02-20T10:50:45.003Z,4.10
2023-02-20T10:52:25.760Z,5.63
2023-02-20T10:53:58.403Z,3.80
2023-02-20T10:55:27.013Z,5.45
2023-02-20T10:56:55.008Z,6.13
2023-02-20T10:58:19.865Z,3.90
2023-02-20T10:59:47.098Z,4.05
2023-02-20T11:01:17.046Z,4.18
2023-02-20T11:02:45.228Z,3.50
2023-02-20T11:04:13.334Z,3.95
2023-02-20T11:05:40.461Z,3.90
2023-02-20T11:07:06.418Z,4.63
2023-02-20T11:08:29.852Z,3.83
2023-02-20T11:09:53.221Z,4.18
2023-02-20T11:11:27.337Z,3.67
2023-02-20T11:12:52.926Z,4.07
2023-02-20T11:14:19.177Z,3.70
2023-02-20T11:15:45.484Z,3.38
2023-02-20T11:17:12.423Z,4.22
2023-02-20T11:18:39.280Z,4.68
2023-02-20T11:20:04.870Z,4.60
2023-02-20T11:21:40.679Z,3.83
2023-02-20T11:23:04.744Z,2.90
2023-02-20T11:24:34.780Z,3.67
2023-02-20T11:25:59.564Z,4.15
2023-02-20T11:27:25.413Z,2.80
2023-02-20T11:28:58.069Z,2.50
2023-02-20T11:30:32.102Z,2.53
2023-02-20T11:31:55.786Z,4.10
2023-02-20T11:33:21.244Z,5.13
2023-02-20T11:34:44.661Z,6.57
2023-02-20T11:36:14.414Z,3.30
2023-02-20T11:37:52.834Z,2.80
2023-02-20T11:39:23.517Z,2.72
2023-02-20T11:40:48.956Z,3.13
2023-02-20T11:42:15.668Z,3.50
2023-02-20T11:43:49.693Z,2.97
2023-02-20T11:45:24.932Z,3.25
2023-02-20T11:46:48.818Z,2.85
2023-02-20T11:48:14.377Z,2.75
2023-02-20T11:49:38.599Z,3.17
2023-02-20T11:51:02.297Z,3.40
2023-02-20T11:52:25.703Z,3.00
2023-02-20T11:53:49.620Z,3.40
2023-02-20T11:55:21.831Z,2.60
2023-02-20T11:57:00.667Z,2.88
2023-02-20T11:58:26.387Z,3.33
2023-02-20T11:59:52.223Z,3.47
2023-02-20T12:01:31.430Z,3.22
2023-02-20T12:02:56.979Z,2.90
2023-02-20T12:04:22.607Z,3.72
2023-02-20T12:05:48.181Z,3.00
2023-02-20T12:07:19.926Z,3.80
2023-02-20T12:08:52.770Z,3.88
2023-02-20T12:10:43.694Z,3.63
2023-02-20T12:12:08.696Z,3.55
2023-02-20T12:13:33.541Z,3.80
2023-02-20T12:14:58.960Z,4.22
2023-02-20T12:16:40.890Z,5.28
2023-02-20T12:18:32.356Z,4.95
2023-02-20T12:19:59.569Z,3.55
2023-02-20T12:21:29.631Z,3.30
2023-02-20T12:22:59.965Z,4.07
2023-02-20T12:24:40.922Z,3.83
2023-02-20T12:26:21.335Z,3.95
2023-02-20T12:28:00.684Z,4.70
2023-02-20T12:29:34.497Z,3.78
2023-02-20T12:31:11.055Z,4.00
2023-02-20T12:32:54.094Z,3.78
2023-02-20T12:34:41.348Z,3.30
2023-02-20T12:36:11.661Z,3.55
2023-02-20T12:37:43.171Z,4.32
2023-02-20T12:39:12.559Z,4.88
2023-02-20T12:40:42.588Z,4.15
2023-02-20T12:42:14.399Z,3.85
2023-02-20T12:43:44.196Z,4.13
2023-02-20T12:45:20.081Z,4.07
2023-02-20T12:46:53.097Z,4.35
2023-02-20T12:48:28.194Z,4.25
2023-02-20T12:50:05.922Z,3.88
2023-02-20T12:51:33.913Z,4.20
2023-02-20T12:53:05.116Z,4.20
2023-02-20T12:54:34.199Z,4.57
2023-02-20T12:56:07.590Z,4.38
2023-02-20T12:57:37.061Z,5.38
2023-02-20T12:59:06.701Z,5.72
2023-02-20T13:00:35.084Z,4.88
2023-02-20T13:02:04.676Z,5.28
2023-02-20T13:03:38.374Z,5.00
2023-02-20T13:05:03.469Z,5.63
2023-02-20T13:06:32.181Z,4.82
2023-02-20T13:07:57.544Z,5.78
2023-02-20T13:09:24.281Z,6.32
2023-02-20T13:10:52.160Z,5.63
2023-02-20T13:12:17.675Z,5.80
2023-02-20T13:13:48.064Z,5.53
2023-02-20T13:15:26.184Z,5.72
2023-02-20T13:16:55.911Z,6.20
2023-02-20T13:18:24.546Z,6.45
2023-02-20T13:19:55.197Z,8.27
2023-02-20T13:21:21.089Z,7.95
2023-02-20T13:22:44.504Z,6.25
2023-02-20T13:24:30.524Z,7.90
2023-02-20T13:25:54.537Z,6.80
2023-02-20T13:27:30.379Z,6.55
2023-02-20T13:28:54.001Z,7.60
2023-02-20T13:30:21.858Z,7.32
2023-02-20T13:31:48.383Z,7.35
2023-02-20T13:33:18.812Z,9.30
2023-02-20T13:34:44.006Z,7.38
2023-02-20T13:36:07.421Z,6.18
2023-02-20T13:37:55.484Z,6.78
2023-02-20T13:39:39.259Z,6.75
2023-02-20T13:41:10.749Z,6.25
2023-02-20T13:42:35.969Z,5.75
2023-02-20T13:44:50.772Z,6.68
2023-02-20T13:46:23.653Z,6.47
2023-02-20T13:47:47.061Z,6.85
2023-02-20T13:49:11.501Z,6.55
2023-02-20T13:50:36.216Z,6.95
2023-02-20T13:52:00.479Z,7.30
2023-02-20T13:53:24.005Z,8.52
2023-02-20T13:54:47.410Z,8.35
2023-02-20T13:56:16.755Z,7.43
2023-02-20T13:57:47.901Z,6.47
2023-02-20T13:59:13.671Z,8.02
2023-02-20T14:00:48.026Z,9.15
2023-02-20T14:02:21.090Z,6.60
2023-02-20T14:03:44.654Z,6.65
2023-02-20T14:05:18.090Z,7.88
2023-02-20T14:06:58.423Z,6.97
2023-02-20T14:08:22.330Z,6.75
2023-02-20T14:09:46.128Z,6.88
2023-02-20T14:11:11.448Z,6.80
2023-02-20T14:12:35.279Z,7.50
2023-02-20T14:14:00.463Z,7.28
2023-02-20T14:15:24.872Z,6.80
2023-02-20T14:16:48.341Z,6.32
2023-02-20T14:18:17.208Z,6.40
2023-02-20T14:20:05.268Z,6.65
2023-02-20T14:21:37.584Z,6.57
2023-02-20T14:23:20.190Z,7.13
2023-02-20T14:24:43.651Z,6.72
2023-02-20T14:26:18.879Z,7.20
2023-02-20T14:27:42.612Z,5.88
2023-02-20T14:29:20.805Z,6.40
2023-02-20T14:30:44.380Z,6.68
2023-02-20T14:32:08.001Z,6.10
2023-02-20T14:33:33.172Z,6.03
2023-02-20T14:35:02.697Z,7.32
2023-02-20T14:36:45.317Z,5.82
2023-02-20T14:38:24.400Z,6.40
2023-02-20T14:39:53.498Z,5.85
2023-02-20T14:41:20.576Z,6.68
2023-02-20T14:42:45.939Z,7.15
2023-02-20T14:44:18.393Z,5.43
2023-02-20T14:45:43.576Z,5.93
2023-02-20T14:47:09.708Z,6.00
2023-02-20T14:48:34.092Z,6.97
2023-02-20T14:50:15.624Z,6.13
2023-02-20T14:51:40.307Z,4.70
2023-02-20T14:53:05.594Z,5.55
2023-02-20T14:54:30.790Z,5.63
2023-02-20T14:55:54.166Z,5.55
2023-02-20T14:57:17.768Z,6.22
2023-02-20T14:58:41.192Z,6.00
2023-02-20T15:00:34.528Z,5.88
2023-02-20T15:01:59.759Z,4.82
2023-02-20T15:03:30.582Z,6.28
2023-02-20T15:04:55.772Z,4.97
2023-02-20T15:06:19.159Z,4.57
2023-02-20T15:07:42.711Z,4.75
2023-02-20T15:09:20.953Z,5.10
2023-02-20T15:10:48.521Z,5.32
2023-02-20T15:12:22.836Z,5.60
2023-02-20T15:13:47.728Z,4.30
2023-02-20T15:15:12.803Z,5.40
2023-02-20T15:16:40.117Z,4.60
2023-02-20T15:18:14.330Z,4.90
2023-02-20T15:19:39.525Z,5.00
2023-02-20T15:21:04.426Z,4.60
2023-02-20T15:22:36.987Z,4.60
2023-02-20T15:24:14.688Z,4.68
2023-02-20T15:25:39.420Z,5.28
2023-02-20T15:27:15.701Z,4.47
2023-02-20T15:28:39.101Z,5.10
2023-02-20T15:30:11.318Z,5.05
2023-02-20T15:31:34.963Z,4.63
2023-02-20T15:32:58.847Z,5.22
2023-02-20T15:34:25.812Z,5.55
2023-02-20T15:35:51.175Z,5.07
2023-02-20T15:37:24.641Z,5.10
2023-02-20T15:38:55.379Z,4.38
2023-02-20T15:40:23.402Z,5.13
2023-02-20T15:41:47.119Z,5.00
2023-02-20T15:43:37.436Z,5.38
2023-02-20T15:44:57.379Z,5.25
2023-02-20T15:46:21.616Z,5.32
2023-02-20T15:47:45.100Z,5.40
2023-02-20T15:49:15.774Z,5.28
2023-02-20T15:50:40.926Z,5.43
2023-02-20T15:52:09.465Z,4.47
2023-02-20T15:53:34.567Z,4.55
2023-02-20T15:54:58.157Z,5.38
2023-02-20T15:56:23.253Z,5.13
2023-02-20T15:57:47.238Z,5.43
2023-02-20T15:59:12.996Z,5.28
2023-02-20T16:00:36.477Z,5.40
2023-02-20T16:02:00.802Z,4.93
2023-02-20T16:03:24.791Z,4.80
2023-02-20T16:04:48.461Z,5.25
2023-02-20T16:06:12.089Z,4.85
2023-02-20T16:07:36.522Z,5.70
2023-02-20T16:08:59.997Z,5.90
2023-02-20T16:10:24.680Z,5.25
2023-02-20T16:11:49.131Z,6.00
2023-02-20T16:13:22.383Z,4.97
2023-02-20T16:14:48.382Z,5.63
2023-02-20T16:16:24.499Z,5.15
2023-02-20T16:17:48.908Z,5.45
2023-02-20T16:19:15.697Z,5.22
2023-02-20T16:20:39.579Z,4.93
2023-02-20T16:22:03.282Z,5.20
2023-02-20T16:23:30.438Z,4.57
2023-02-20T16:24:54.777Z,4.47
2023-02-20T16:26:18.669Z,5.13
2023-02-20T16:27:42.256Z,5.38
2023-02-20T16:29:09.022Z,4.80
2023-02-20T16:30:39.033Z,4.72
2023-02-20T16:32:21.953Z,4.78
2023-02-20T16:33:45.362Z,4.68
2023-02-20T16:35:12.585Z,4.88
2023-02-20T16:36:36.800Z,4.47
2023-02-20T16:38:00.200Z,5.07
2023-02-20T16:39:27.551Z,5.10
2023-02-20T16:40:54.812Z,7.38
2023-02-20T16:42:30.776Z,5.82
2023-02-20T16:43:54.157Z,7.55
2023-02-20T16:45:19.492Z,6.20
2023-02-20T16:46:44.508Z,6.88
2023-02-20T16:48:13.473Z,5.53
2023-02-20T16:49:38.124Z,4.97
2023-02-20T16:51:01.573Z,5.18
2023-02-20T16:52:27.504Z,5.97
2023-02-20T16:53:51.109Z,4.85
2023-02-20T16:55:21.219Z,5.45
2023-02-20T16:56:44.724Z,4.72
2023-02-20T16:58:08.210Z,3.97
2023-02-20T16:59:30.665Z,5.20
2023-02-20T17:00:57.576Z,4.47
2023-02-20T17:02:23.784Z,4.95
2023-02-20T17:03:47.171Z,5.30
2023-02-20T17:05:12.526Z,3.83
2023-02-20T17:06:35.905Z,4.85
2023-02-20T17:08:00.371Z,4.63
2023-02-20T17:09:28.499Z,4.55
2023-02-20T17:10:57.349Z,5.07
2023-02-20T17:12:22.612Z,5.28
2023-02-20T17:13:45.956Z,4.35
2023-02-20T17:15:10.249Z,5.07
2023-02-20T17:16:32.870Z,4.78
2023-02-20T17:17:57.706Z,5.07
2023-02-20T17:19:20.114Z,5.60
2023-02-20T17:20:43.833Z,4.47
2023-02-20T17:22:07.677Z,4.55
2023-02-20T17:23:31.124Z,4.90
2023-02-20T17:24:55.035Z,5.55
2023-02-20T17:26:17.471Z,5.15
2023-02-20T17:27:40.863Z,4.43
2023-02-20T17:29:04.422Z,5.07
2023-02-20T17:30:28.239Z,5.05
2023-02-20T17:31:51.885Z,4.90
2023-02-20T17:33:16.751Z,5.43
2023-02-20T17:34:40.236Z,5.47
2023-02-20T17:36:03.605Z,5.20
2023-02-20T17:37:30.302Z,5.32
2023-02-20T17:38:53.793Z,4.65
2023-02-20T17:40:17.838Z,4.47
2023-02-20T17:41:41.221Z,4.35
2023-02-20T17:43:12.485Z,4.60
2023-02-20T17:44:38.300Z,3.90
2023-02-20T17:46:01.888Z,4.40
2023-02-20T17:47:25.495Z,4.57
2023-02-20T17:48:50.337Z,4.25
2023-02-20T17:50:14.102Z,4.32
2023-02-20T17:51:37.523Z,4.95
2023-02-20T17:53:01.821Z,4.97
2023-02-20T17:54:25.213Z,5.25
2023-02-20T17:55:48.635Z,4.97
2023-02-20T17:57:12.044Z,4.20
2023-02-20T17:58:35.777Z,4.43
2023-02-20T17:59:59.182Z,4.25
2023-02-20T18:01:27.406Z,4.70
2023-02-20T18:02:50.976Z,5.03
2023-02-20T18:04:14.834Z,5.55
2023-02-20T18:05:38.450Z,4.43
2023-02-20T18:07:02.416Z,4.88
2023-02-20T18:08:25.778Z,4.95
2023-02-20T18:09:49.257Z,5.68
2023-02-20T18:11:11.664Z,5.43
2023-02-20T18:12:37.736Z,5.28
2023-02-20T18:14:01.457Z,4.72
2023-02-20T18:15:24.819Z,5.68
2023-02-20T18:16:48.825Z,6.07
2023-02-20T18:18:15.002Z,5.80
2023-02-20T18:19:39.825Z,5.45
2023-02-20T18:21:02.244Z,4.97
2023-02-20T18:22:25.619Z,5.15
2023-02-20T18:23:49.039Z,5.07
2023-02-20T18:25:12.438Z,5.18
2023-02-20T18:26:36.216Z,5.57
2023-02-20T18:28:00.610Z,6.68
2023-02-20T18:29:25.171Z,5.97
2023-02-20T18:30:48.689Z,6.50
2023-02-20T18:32:12.141Z,5.65
2023-02-20T18:33:35.855Z,6.28
2023-02-20T18:35:00.780Z,6.35
2023-02-20T18:36:24.679Z,5.38
2023-02-20T18:37:48.290Z,6.15
2023-02-20T18:39:13.744Z,6.05
2023-02-20T18:40:37.204Z,6.32
2023-02-20T18:42:00.592Z,6.40
2023-02-20T18:43:23.066Z,5.70
2023-02-20T18:44:48.090Z,6.45
2023-02-20T18:46:11.869Z,5.38
2023-02-20T18:47:35.948Z,5.97
2023-02-20T18:48:59.840Z,5.38
2023-02-20T18:50:24.597Z,6.45
2023-02-20T18:51:48.063Z,4.63
2023-02-20T18:53:11.543Z,5.30
2023-02-20T18:54:35.022Z,5.85
2023-02-20T18:55:58.490Z,6.93
2023-02-20T18:57:23.487Z,5.93
2023-02-20T18:58:47.002Z,4.93
2023-02-20T19:00:11.870Z,6.32
2023-02-20T19:01:35.438Z,6.38
2023-02-20T19:03:01.118Z,5.88
2023-02-20T19:04:25.137Z,6.55
2023-02-20T19:05:51.457Z,6.03
2023-02-20T19:07:15.013Z,6.60
2023-02-20T19:08:39.231Z,6.15
2023-02-20T19:10:02.732Z,5.90
2023-02-20T19:11:26.201Z,5.93
2023-02-20T19:12:49.848Z,6.55
2023-02-20T19:14:13.245Z,6.13
2023-02-20T19:15:36.707Z,6.47